sensor_id;sensor_type;location;lat;lon;timestamp;P1;durP1;ratioP1;P2;durP2;ratioP2
48667;SDS011;34453;52.198;5.004;2023-04-03T00:01:13;1.00;;;0.98;;
48667;SDS011;34453;52.198;5.004;2023-04-03T00:03:40;1.80;;;1.25;;
48667;SDS011;34453;52.198;5.004;2023-04-03T00:06:08;2.90;;;1.98;;
48667;SDS011;34453;52.198;5.004;2023-04-03T00:08:36;3.00;;;1.23;;
48667;SDS011;34453;52.198;5.004;2023-04-03T00:11:02;1.33;;;1.10;;
48667;SDS011;34453;52.198;5.004;2023-04-03T00:13:29;3.08;;;1.20;;
48667;SDS011;34453;52.198;5.004;2023-04-03T00:15:55;4.68;;;1.48;;
48667;SDS011;34453;52.198;5.004;2023-04-03T00:18:20;3.33;;;1.10;;
48667;SDS011;34453;52.198;5.004;2023-04-03T00:20:47;1.40;;;1.30;;
48667;SDS011;34453;52.198;5.004;2023-04-03T00:23:12;3.50;;;1.70;;
48667;SDS011;34453;52.198;5.004;2023-04-03T00:25:38;2.28;;;1.40;;
48667;SDS011;34453;52.198;5.004;2023-04-03T00:28:04;3.03;;;1.48;;
48667;SDS011;34453;52.198;5.004;2023-04-03T00:30:30;2.45;;;1.20;;
48667;SDS011;34453;52.198;5.004;2023-04-03T00:32:56;1.55;;;1.30;;
48667;SDS011;34453;52.198;5.004;2023-04-03T00:35:22;1.25;;;1.23;;
48667;SDS011;34453;52.198;5.004;2023-04-03T00:37:48;2.40;;;1.17;;
48667;SDS011;34453;52.198;5.004;2023-04-03T00:40:17;1.45;;;0.90;;
48667;SDS011;34453;52.198;5.004;2023-04-03T00:42:43;1.58;;;1.48;;
48667;SDS011;34453;52.198;5.004;2023-04-03T00:47:40;4.15;;;1.50;;
48667;SDS011;34453;52.198;5.004;2023-04-03T00:50:07;1.50;;;1.33;;
48667;SDS011;34453;52.198;5.004;2023-04-03T00:52:33;5.07;;;1.45;;
48667;SDS011;34453;52.198;5.004;2023-04-03T00:54:59;1.40;;;1.30;;
48667;SDS011;34453;52.198;5.004;2023-04-03T00:57:29;4.75;;;1.70;;
48667;SDS011;34453;52.198;5.004;2023-04-03T00:59:59;2.25;;;1.35;;
48667;SDS011;34453;52.198;5.004;2023-04-03T01:02:29;1.60;;;1.50;;
48667;SDS011;34453;52.198;5.004;2023-04-03T01:04:55;1.85;;;1.40;;
48667;SDS011;34453;52.198;5.004;2023-04-03T01:07:26;1.05;;;1.05;;
48667;SDS011;34453;52.198;5.004;2023-04-03T01:09:58;2.03;;;1.58;;
48667;SDS011;34453;52.198;5.004;2023-04-03T01:14:54;1.88;;;1.60;;
48667;SDS011;34453;52.198;5.004;2023-04-03T01:19:55;3.00;;;1.30;;
48667;SDS011;34453;52.198;5.004;2023-04-03T01:25:21;3.38;;;1.58;;
48667;SDS011;34453;52.198;5.004;2023-04-03T01:27:46;1.80;;;1.20;;
48667;SDS011;34453;52.198;5.004;2023-04-03T01:30:12;2.13;;;1.13;;
48667;SDS011;34453;52.198;5.004;2023-04-03T01:32:41;4.97;;;1.92;;
48667;SDS011;34453;52.198;5.004;2023-04-03T01:35:07;1.45;;;1.35;;
48667;SDS011;34453;52.198;5.004;2023-04-03T01:37:33;7.25;;;1.95;;
48667;SDS011;34453;52.198;5.004;2023-04-03T01:39:59;6.65;;;1.73;;
48667;SDS011;34453;52.198;5.004;2023-04-03T01:42:24;3.00;;;1.58;;
48667;SDS011;34453;52.198;5.004;2023-04-03T01:44:50;1.20;;;1.10;;
48667;SDS011;34453;52.198;5.004;2023-04-03T01:47:15;7.95;;;1.88;;
48667;SDS011;34453;52.198;5.004;2023-04-03T01:49:40;4.93;;;2.28;;
48667;SDS011;34453;52.198;5.004;2023-04-03T01:52:06;1.90;;;1.75;;
48667;SDS011;34453;52.198;5.004;2023-04-03T01:54:31;2.15;;;1.63;;
48667;SDS011;34453;52.198;5.004;2023-04-03T01:56:57;5.43;;;2.03;;
48667;SDS011;34453;52.198;5.004;2023-04-03T01:59:23;2.25;;;1.55;;
48667;SDS011;34453;52.198;5.004;2023-04-03T02:01:48;1.60;;;1.50;;
48667;SDS011;34453;52.198;5.004;2023-04-03T02:04:14;3.80;;;2.03;;
48667;SDS011;34453;52.198;5.004;2023-04-03T02:06:39;4.63;;;1.70;;
48667;SDS011;34453;52.198;5.004;2023-04-03T02:09:05;2.40;;;2.15;;
48667;SDS011;34453;52.198;5.004;2023-04-03T02:11:31;3.97;;;1.85;;
48667;SDS011;34453;52.198;5.004;2023-04-03T02:13:56;2.33;;;1.98;;
48667;SDS011;34453;52.198;5.004;2023-04-03T02:16:21;4.57;;;1.60;;
48667;SDS011;34453;52.198;5.004;2023-04-03T02:18:47;2.25;;;1.40;;
48667;SDS011;34453;52.198;5.004;2023-04-03T02:21:12;2.13;;;1.75;;
48667;SDS011;34453;52.198;5.004;2023-04-03T02:23:38;2.05;;;1.88;;
48667;SDS011;34453;52.198;5.004;2023-04-03T02:26:13;2.83;;;2.20;;
48667;SDS011;34453;52.198;5.004;2023-04-03T02:28:39;2.40;;;1.67;;
48667;SDS011;34453;52.198;5.004;2023-04-03T02:31:06;2.92;;;1.75;;
48667;SDS011;34453;52.198;5.004;2023-04-03T02:33:32;2.83;;;2.08;;
48667;SDS011;34453;52.198;5.004;2023-04-03T02:35:58;4.63;;;2.25;;
48667;SDS011;34453;52.198;5.004;2023-04-03T02:38:24;3.88;;;1.70;;
48667;SDS011;34453;52.198;5.004;2023-04-03T02:40:50;5.38;;;1.60;;
48667;SDS011;34453;52.198;5.004;2023-04-03T02:43:16;4.32;;;2.00;;
48667;SDS011;34453;52.198;5.004;2023-04-03T02:45:42;4.05;;;2.17;;
48667;SDS011;34453;52.198;5.004;2023-04-03T02:48:08;2.42;;;1.95;;
48667;SDS011;34453;52.198;5.004;2023-04-03T02:50:33;3.83;;;1.70;;
48667;SDS011;34453;52.198;5.004;2023-04-03T02:52:58;1.98;;;1.50;;
48667;SDS011;34453;52.198;5.004;2023-04-03T02:55:24;2.78;;;2.05;;
48667;SDS011;34453;52.198;5.004;2023-04-03T02:57:50;5.95;;;2.17;;
48667;SDS011;34453;52.198;5.004;2023-04-03T03:00:15;4.13;;;2.53;;
48667;SDS011;34453;52.198;5.004;2023-04-03T03:02:41;3.97;;;1.50;;
48667;SDS011;34453;52.198;5.004;2023-04-03T03:05:07;1.70;;;1.60;;
48667;SDS011;34453;52.198;5.004;2023-04-03T03:07:33;5.10;;;2.58;;
48667;SDS011;34453;52.198;5.004;2023-04-03T03:09:59;4.07;;;1.90;;
48667;SDS011;34453;52.198;5.004;2023-04-03T03:12:24;1.67;;;1.58;;
48667;SDS011;34453;52.198;5.004;2023-04-03T03:14:50;7.07;;;2.33;;
48667;SDS011;34453;52.198;5.004;2023-04-03T03:17:16;7.35;;;2.75;;
48667;SDS011;34453;52.198;5.004;2023-04-03T03:19:42;6.95;;;2.17;;
48667;SDS011;34453;52.198;5.004;2023-04-03T03:22:07;7.70;;;2.78;;
48667;SDS011;34453;52.198;5.004;2023-04-03T03:24:33;2.75;;;1.73;;
48667;SDS011;34453;52.198;5.004;2023-04-03T03:26:58;8.02;;;3.42;;
48667;SDS011;34453;52.198;5.004;2023-04-03T03:29:23;9.00;;;1.85;;
48667;SDS011;34453;52.198;5.004;2023-04-03T03:31:49;5.78;;;1.92;;
48667;SDS011;34453;52.198;5.004;2023-04-03T03:34:14;6.45;;;2.22;;
48667;SDS011;34453;52.198;5.004;2023-04-03T03:36:40;4.65;;;1.88;;
48667;SDS011;34453;52.198;5.004;2023-04-03T03:39:06;3.10;;;2.10;;
48667;SDS011;34453;52.198;5.004;2023-04-03T03:41:31;2.85;;;2.03;;
48667;SDS011;34453;52.198;5.004;2023-04-03T03:43:57;2.50;;;1.80;;
48667;SDS011;34453;52.198;5.004;2023-04-03T03:46:22;3.60;;;1.55;;
48667;SDS011;34453;52.198;5.004;2023-04-03T03:48:48;6.80;;;2.40;;
48667;SDS011;34453;52.198;5.004;2023-04-03T03:51:13;7.82;;;3.00;;
48667;SDS011;34453;52.198;5.004;2023-04-03T03:53:39;2.28;;;1.88;;
48667;SDS011;34453;52.198;5.004;2023-04-03T03:56:05;2.45;;;2.10;;
48667;SDS011;34453;52.198;5.004;2023-04-03T03:58:30;2.70;;;1.85;;
48667;SDS011;34453;52.198;5.004;2023-04-03T04:00:59;5.63;;;2.28;;
48667;SDS011;34453;52.198;5.004;2023-04-03T04:03:25;5.80;;;2.38;;
48667;SDS011;34453;52.198;5.004;2023-04-03T04:05:51;2.58;;;1.95;;
48667;SDS011;34453;52.198;5.004;2023-04-03T04:08:16;5.20;;;1.98;;
48667;SDS011;34453;52.198;5.004;2023-04-03T04:10:42;1.88;;;1.50;;
48667;SDS011;34453;52.198;5.004;2023-04-03T04:13:07;3.15;;;2.25;;
48667;SDS011;34453;52.198;5.004;2023-04-03T04:15:33;3.95;;;2.25;;
48667;SDS011;34453;52.198;5.004;2023-04-03T04:17:58;4.38;;;2.47;;
48667;SDS011;34453;52.198;5.004;2023-04-03T04:20:24;7.88;;;2.10;;
48667;SDS011;34453;52.198;5.004;2023-04-03T04:22:49;2.70;;;2.03;;
48667;SDS011;34453;52.198;5.004;2023-04-03T04:25:15;6.13;;;2.15;;
48667;SDS011;34453;52.198;5.004;2023-04-03T04:27:40;9.88;;;1.77;;
48667;SDS011;34453;52.198;5.004;2023-04-03T04:30:06;2.20;;;2.00;;
48667;SDS011;34453;52.198;5.004;2023-04-03T04:32:32;2.83;;;2.03;;
48667;SDS011;34453;52.198;5.004;2023-04-03T04:34:57;9.43;;;3.03;;
48667;SDS011;34453;52.198;5.004;2023-04-03T04:37:23;3.47;;;2.17;;
48667;SDS011;34453;52.198;5.004;2023-04-03T04:39:48;6.25;;;2.45;;
48667;SDS011;34453;52.198;5.004;2023-04-03T04:42:14;3.58;;;2.00;;
48667;SDS011;34453;52.198;5.004;2023-04-03T04:44:40;6.90;;;2.20;;
48667;SDS011;34453;52.198;5.004;2023-04-03T04:47:05;2.15;;;1.88;;
48667;SDS011;34453;52.198;5.004;2023-04-03T04:49:31;8.27;;;1.88;;
48667;SDS011;34453;52.198;5.004;2023-04-03T04:51:56;4.25;;;1.88;;
48667;SDS011;34453;52.198;5.004;2023-04-03T04:54:22;4.70;;;1.63;;
48667;SDS011;34453;52.198;5.004;2023-04-03T04:56:47;8.70;;;2.30;;
48667;SDS011;34453;52.198;5.004;2023-04-03T04:59:12;3.75;;;1.90;;
48667;SDS011;34453;52.198;5.004;2023-04-03T05:01:38;3.10;;;2.85;;
48667;SDS011;34453;52.198;5.004;2023-04-03T05:04:04;2.53;;;2.08;;
48667;SDS011;34453;52.198;5.004;2023-04-03T05:06:29;4.75;;;2.38;;
48667;SDS011;34453;52.198;5.004;2023-04-03T05:08:57;4.38;;;2.33;;
48667;SDS011;34453;52.198;5.004;2023-04-03T05:11:23;5.78;;;2.42;;
48667;SDS011;34453;52.198;5.004;2023-04-03T05:13:48;3.28;;;2.95;;
48667;SDS011;34453;52.198;5.004;2023-04-03T05:16:14;4.55;;;2.65;;
48667;SDS011;34453;52.198;5.004;2023-04-03T05:18:40;9.07;;;3.38;;
48667;SDS011;34453;52.198;5.004;2023-04-03T05:21:05;7.00;;;2.20;;
48667;SDS011;34453;52.198;5.004;2023-04-03T05:23:30;8.45;;;3.08;;
48667;SDS011;34453;52.198;5.004;2023-04-03T05:25:56;5.35;;;2.85;;
48667;SDS011;34453;52.198;5.004;2023-04-03T05:28:21;2.88;;;2.30;;
48667;SDS011;34453;52.198;5.004;2023-04-03T05:30:54;5.68;;;2.55;;
48667;SDS011;34453;52.198;5.004;2023-04-03T05:33:21;6.82;;;2.28;;
48667;SDS011;34453;52.198;5.004;2023-04-03T05:35:46;3.58;;;3.25;;
48667;SDS011;34453;52.198;5.004;2023-04-03T05:38:12;8.00;;;2.50;;
48667;SDS011;34453;52.198;5.004;2023-04-03T05:40:37;7.20;;;3.45;;
48667;SDS011;34453;52.198;5.004;2023-04-03T05:43:03;4.72;;;2.25;;
48667;SDS011;34453;52.198;5.004;2023-04-03T05:45:28;7.97;;;2.45;;
48667;SDS011;34453;52.198;5.004;2023-04-03T05:47:54;5.47;;;2.30;;
48667;SDS011;34453;52.198;5.004;2023-04-03T05:50:19;4.80;;;2.50;;
48667;SDS011;34453;52.198;5.004;2023-04-03T05:52:45;7.15;;;2.58;;
48667;SDS011;34453;52.198;5.004;2023-04-03T05:55:13;3.88;;;2.13;;
48667;SDS011;34453;52.198;5.004;2023-04-03T05:57:39;5.88;;;2.08;;
48667;SDS011;34453;52.198;5.004;2023-04-03T06:00:05;5.28;;;2.13;;
48667;SDS011;34453;52.198;5.004;2023-04-03T06:02:32;8.73;;;2.70;;
48667;SDS011;34453;52.198;5.004;2023-04-03T06:04:57;4.70;;;2.75;;
48667;SDS011;34453;52.198;5.004;2023-04-03T06:07:24;4.45;;;2.72;;
48667;SDS011;34453;52.198;5.004;2023-04-03T06:09:53;5.90;;;2.70;;
48667;SDS011;34453;52.198;5.004;2023-04-03T06:12:20;6.45;;;2.60;;
48667;SDS011;34453;52.198;5.004;2023-04-03T06:14:47;5.22;;;2.42;;
48667;SDS011;34453;52.198;5.004;2023-04-03T06:17:13;5.00;;;2.35;;
48667;SDS011;34453;52.198;5.004;2023-04-03T06:19:40;3.90;;;2.30;;
48667;SDS011;34453;52.198;5.004;2023-04-03T06:22:06;3.45;;;2.08;;
48667;SDS011;34453;52.198;5.004;2023-04-03T06:24:32;5.25;;;2.20;;
48667;SDS011;34453;52.198;5.004;2023-04-03T06:26:57;7.13;;;2.63;;
48667;SDS011;34453;52.198;5.004;2023-04-03T06:29:23;5.57;;;2.63;;
48667;SDS011;34453;52.198;5.004;2023-04-03T06:31:49;2.72;;;2.53;;
48667;SDS011;34453;52.198;5.004;2023-04-03T06:34:15;5.65;;;2.80;;
48667;SDS011;34453;52.198;5.004;2023-04-03T06:36:42;8.50;;;2.72;;
48667;SDS011;34453;52.198;5.004;2023-04-03T06:39:09;3.70;;;2.30;;
48667;SDS011;34453;52.198;5.004;2023-04-03T06:41:39;5.72;;;2.47;;
48667;SDS011;34453;52.198;5.004;2023-04-03T06:44:04;5.75;;;2.65;;
48667;SDS011;34453;52.198;5.004;2023-04-03T06:46:30;8.80;;;3.35;;
48667;SDS011;34453;52.198;5.004;2023-04-03T06:48:56;14.10;;;4.43;;
48667;SDS011;34453;52.198;5.004;2023-04-03T06:51:22;12.65;;;3.15;;
48667;SDS011;34453;52.198;5.004;2023-04-03T06:53:50;8.75;;;2.58;;
48667;SDS011;34453;52.198;5.004;2023-04-03T06:56:18;7.43;;;3.40;;
48667;SDS011;34453;52.198;5.004;2023-04-03T06:58:43;3.05;;;2.75;;
48667;SDS011;34453;52.198;5.004;2023-04-03T07:01:10;8.95;;;2.65;;
48667;SDS011;34453;52.198;5.004;2023-04-03T07:03:37;4.57;;;2.42;;
48667;SDS011;34453;52.198;5.004;2023-04-03T07:06:03;5.85;;;2.42;;
48667;SDS011;34453;52.198;5.004;2023-04-03T07:08:29;4.07;;;2.42;;
48667;SDS011;34453;52.198;5.004;2023-04-03T07:10:55;7.72;;;2.28;;
48667;SDS011;34453;52.198;5.004;2023-04-03T07:13:21;8.65;;;2.60;;
48667;SDS011;34453;52.198;5.004;2023-04-03T07:15:46;7.75;;;2.47;;
48667;SDS011;34453;52.198;5.004;2023-04-03T07:18:12;10.02;;;2.65;;
48667;SDS011;34453;52.198;5.004;2023-04-03T07:20:38;3.47;;;2.30;;
48667;SDS011;34453;52.198;5.004;2023-04-03T07:23:04;13.30;;;3.65;;
48667;SDS011;34453;52.198;5.004;2023-04-03T07:25:29;4.10;;;2.30;;
48667;SDS011;34453;52.198;5.004;2023-04-03T07:27:56;4.00;;;2.25;;
48667;SDS011;34453;52.198;5.004;2023-04-03T07:30:22;5.80;;;2.22;;
48667;SDS011;34453;52.198;5.004;2023-04-03T07:32:48;3.40;;;3.10;;
48667;SDS011;34453;52.198;5.004;2023-04-03T07:35:13;3.53;;;1.85;;
48667;SDS011;34453;52.198;5.004;2023-04-03T07:37:39;3.53;;;2.35;;
48667;SDS011;34453;52.198;5.004;2023-04-03T07:40:05;2.67;;;2.25;;
48667;SDS011;34453;52.198;5.004;2023-04-03T07:42:32;4.60;;;2.33;;
48667;SDS011;34453;52.198;5.004;2023-04-03T07:44:58;2.88;;;2.55;;
48667;SDS011;34453;52.198;5.004;2023-04-03T07:47:25;2.13;;;1.90;;
48667;SDS011;34453;52.198;5.004;2023-04-03T07:49:51;7.45;;;2.35;;
48667;SDS011;34453;52.198;5.004;2023-04-03T07:52:16;7.57;;;2.75;;
48667;SDS011;34453;52.198;5.004;2023-04-03T07:54:42;6.22;;;2.25;;
48667;SDS011;34453;52.198;5.004;2023-04-03T07:57:07;6.53;;;2.33;;
48667;SDS011;34453;52.198;5.004;2023-04-03T07:59:33;8.45;;;2.00;;
48667;SDS011;34453;52.198;5.004;2023-04-03T08:01:58;3.22;;;2.40;;
48667;SDS011;34453;52.198;5.004;2023-04-03T08:04:24;6.95;;;3.17;;
48667;SDS011;34453;52.198;5.004;2023-04-03T08:06:51;7.28;;;2.35;;
48667;SDS011;34453;52.198;5.004;2023-04-03T08:09:16;4.28;;;2.35;;
48667;SDS011;34453;52.198;5.004;2023-04-03T08:11:42;3.45;;;2.20;;
48667;SDS011;34453;52.198;5.004;2023-04-03T08:14:07;5.75;;;1.83;;
48667;SDS011;34453;52.198;5.004;2023-04-03T08:16:33;1.85;;;1.38;;
48667;SDS011;34453;52.198;5.004;2023-04-03T08:18:58;3.42;;;2.03;;
48667;SDS011;34453;52.198;5.004;2023-04-03T08:21:24;3.45;;;1.90;;
48667;SDS011;34453;52.198;5.004;2023-04-03T08:23:50;2.67;;;1.90;;
48667;SDS011;34453;52.198;5.004;2023-04-03T08:26:17;3.35;;;1.80;;
48667;SDS011;34453;52.198;5.004;2023-04-03T08:28:45;8.23;;;2.30;;
48667;SDS011;34453;52.198;5.004;2023-04-03T08:31:12;4.45;;;1.63;;
48667;SDS011;34453;52.198;5.004;2023-04-03T08:33:40;4.00;;;1.88;;
48667;SDS011;34453;52.198;5.004;2023-04-03T08:36:06;9.18;;;2.42;;
48667;SDS011;34453;52.198;5.004;2023-04-03T08:38:33;5.90;;;1.85;;
48667;SDS011;34453;52.198;5.004;2023-04-03T08:41:11;2.67;;;1.80;;
48667;SDS011;34453;52.198;5.004;2023-04-03T08:43:56;2.83;;;1.33;;
48667;SDS011;34453;52.198;5.004;2023-04-03T08:46:26;2.28;;;1.50;;
48667;SDS011;34453;52.198;5.004;2023-04-03T08:49:03;3.20;;;1.42;;
48667;SDS011;34453;52.198;5.004;2023-04-03T08:51:35;3.08;;;1.65;;
48667;SDS011;34453;52.198;5.004;2023-04-03T08:54:04;4.32;;;1.60;;
48667;SDS011;34453;52.198;5.004;2023-04-03T08:56:37;2.45;;;1.90;;
48667;SDS011;34453;52.198;5.004;2023-04-03T08:59:05;2.75;;;1.35;;
48667;SDS011;34453;52.198;5.004;2023-04-03T09:01:37;1.90;;;1.40;;
48667;SDS011;34453;52.198;5.004;2023-04-03T09:04:11;1.90;;;1.58;;
48667;SDS011;34453;52.198;5.004;2023-04-03T09:06:39;4.13;;;1.70;;
48667;SDS011;34453;52.198;5.004;2023-04-03T09:12:17;3.25;;;2.05;;
48667;SDS011;34453;52.198;5.004;2023-04-03T09:15:34;5.32;;;1.27;;
48667;SDS011;34453;52.198;5.004;2023-04-03T09:22:48;0.85;;;0.85;;
48667;SDS011;34453;52.198;5.004;2023-04-03T09:25:17;1.48;;;1.00;;
48667;SDS011;34453;52.198;5.004;2023-04-03T09:27:43;1.45;;;1.23;;
48667;SDS011;34453;52.198;5.004;2023-04-03T09:30:12;1.92;;;0.95;;
48667;SDS011;34453;52.198;5.004;2023-04-03T09:32:43;2.17;;;1.38;;
48667;SDS011;34453;52.198;5.004;2023-04-03T09:37:44;4.00;;;1.00;;
48667;SDS011;34453;52.198;5.004;2023-04-03T09:40:31;0.95;;;0.90;;
48667;SDS011;34453;52.198;5.004;2023-04-03T09:43:19;1.80;;;0.65;;
48667;SDS011;34453;52.198;5.004;2023-04-03T09:45:49;1.42;;;0.70;;
48667;SDS011;34453;52.198;5.004;2023-04-03T09:48:20;2.53;;;1.17;;
48667;SDS011;34453;52.198;5.004;2023-04-03T09:58:44;0.95;;;0.70;;
48667;SDS011;34453;52.198;5.004;2023-04-03T10:04:08;0.98;;;0.88;;
48667;SDS011;34453;52.198;5.004;2023-04-03T10:06:44;2.70;;;0.70;;
48667;SDS011;34453;52.198;5.004;2023-04-03T10:09:19;2.20;;;0.80;;
48667;SDS011;34453;52.198;5.004;2023-04-03T10:14:30;0.70;;;0.65;;
48667;SDS011;34453;52.198;5.004;2023-04-03T10:28:39;5.40;;;0.73;;
48667;SDS011;34453;52.198;5.004;2023-04-03T10:37:04;1.75;;;1.08;;
48667;SDS011;34453;52.198;5.004;2023-04-03T10:48:13;0.50;;;0.50;;
48667;SDS011;34453;52.198;5.004;2023-04-03T10:56:42;0.50;;;0.50;;
48667;SDS011;34453;52.198;5.004;2023-04-03T10:59:33;1.58;;;0.52;;
48667;SDS011;34453;52.198;5.004;2023-04-03T11:04:50;0.47;;;0.40;;
48667;SDS011;34453;52.198;5.004;2023-04-03T11:07:20;0.50;;;0.50;;
48667;SDS011;34453;52.198;5.004;2023-04-03T11:09:50;2.63;;;0.85;;
48667;SDS011;34453;52.198;5.004;2023-04-03T11:12:41;0.70;;;0.70;;
48667;SDS011;34453;52.198;5.004;2023-04-03T11:15:13;2.40;;;0.43;;
48667;SDS011;34453;52.198;5.004;2023-04-03T11:18:06;0.70;;;0.70;;
48667;SDS011;34453;52.198;5.004;2023-04-03T11:20:38;0.70;;;0.50;;
48667;SDS011;34453;52.198;5.004;2023-04-03T11:26:14;1.40;;;0.55;;
48667;SDS011;34453;52.198;5.004;2023-04-03T11:28:42;0.50;;;0.50;;
48667;SDS011;34453;52.198;5.004;2023-04-03T11:31:19;0.50;;;0.50;;
48667;SDS011;34453;52.198;5.004;2023-04-03T11:36:29;2.22;;;0.65;;
48667;SDS011;34453;52.198;5.004;2023-04-03T11:38:58;0.68;;;0.50;;
48667;SDS011;34453;52.198;5.004;2023-04-03T11:41:32;0.93;;;0.60;;
48667;SDS011;34453;52.198;5.004;2023-04-03T11:44:05;0.60;;;0.60;;
48667;SDS011;34453;52.198;5.004;2023-04-03T12:05:52;2.13;;;1.05;;
48667;SDS011;34453;52.198;5.004;2023-04-03T12:16:29;2.63;;;0.60;;
48667;SDS011;34453;52.198;5.004;2023-04-03T12:24:29;0.50;;;0.50;;
48667;SDS011;34453;52.198;5.004;2023-04-03T12:45:26;2.00;;;0.63;;
48667;SDS011;34453;52.198;5.004;2023-04-03T12:47:53;1.20;;;0.70;;
48667;SDS011;34453;52.198;5.004;2023-04-03T12:53:02;1.27;;;0.60;;
48667;SDS011;34453;52.198;5.004;2023-04-03T12:55:38;1.15;;;0.90;;
48667;SDS011;34453;52.198;5.004;2023-04-03T13:01:09;1.85;;;0.73;;
48667;SDS011;34453;52.198;5.004;2023-04-03T13:03:37;0.68;;;0.60;;
48667;SDS011;34453;52.198;5.004;2023-04-03T13:06:05;1.77;;;0.63;;
48667;SDS011;34453;52.198;5.004;2023-04-03T13:08:31;0.98;;;0.60;;
48667;SDS011;34453;52.198;5.004;2023-04-03T13:11:08;0.98;;;0.80;;
48667;SDS011;34453;52.198;5.004;2023-04-03T13:13:36;0.80;;;0.60;;
48667;SDS011;34453;52.198;5.004;2023-04-03T13:16:10;2.70;;;0.70;;
48667;SDS011;34453;52.198;5.004;2023-04-03T13:18:37;1.17;;;0.82;;
48667;SDS011;34453;52.198;5.004;2023-04-03T13:21:04;2.92;;;1.08;;
48667;SDS011;34453;52.198;5.004;2023-04-03T13:23:43;0.50;;;0.50;;
48667;SDS011;34453;52.198;5.004;2023-04-03T13:26:12;1.20;;;0.63;;
48667;SDS011;34453;52.198;5.004;2023-04-03T13:28:41;1.10;;;1.02;;
48667;SDS011;34453;52.198;5.004;2023-04-03T13:33:39;1.90;;;0.75;;
48667;SDS011;34453;52.198;5.004;2023-04-03T13:36:54;1.05;;;0.93;;
48667;SDS011;34453;52.198;5.004;2023-04-03T13:39:23;3.50;;;0.93;;
48667;SDS011;34453;52.198;5.004;2023-04-03T13:41:53;0.93;;;0.88;;
48667;SDS011;34453;52.198;5.004;2023-04-03T13:44:32;1.27;;;1.10;;
48667;SDS011;34453;52.198;5.004;2023-04-03T13:55:15;1.65;;;1.00;;
48667;SDS011;34453;52.198;5.004;2023-04-03T13:57:55;0.57;;;0.57;;
48667;SDS011;34453;52.198;5.004;2023-04-03T14:01:09;0.77;;;0.70;;
48667;SDS011;34453;52.198;5.004;2023-04-03T14:03:16;1.02;;;0.70;;
48667;SDS011;34453;52.198;5.004;2023-04-03T14:05:46;0.60;;;0.60;;
48667;SDS011;34453;52.198;5.004;2023-04-03T14:08:12;1.33;;;0.73;;
48667;SDS011;34453;52.198;5.004;2023-04-03T14:10:37;2.17;;;0.93;;
48667;SDS011;34453;52.198;5.004;2023-04-03T14:13:04;5.28;;;1.20;;
48667;SDS011;34453;52.198;5.004;2023-04-03T14:15:30;1.15;;;1.15;;
48667;SDS011;34453;52.198;5.004;2023-04-03T14:17:57;1.67;;;0.93;;
48667;SDS011;34453;52.198;5.004;2023-04-03T14:20:24;1.45;;;0.98;;
48667;SDS011;34453;52.198;5.004;2023-04-03T14:22:51;0.70;;;0.70;;
48667;SDS011;34453;52.198;5.004;2023-04-03T14:25:16;0.70;;;0.70;;
48667;SDS011;34453;52.198;5.004;2023-04-03T14:27:44;2.50;;;0.70;;
48667;SDS011;34453;52.198;5.004;2023-04-03T14:30:21;1.08;;;0.60;;
48667;SDS011;34453;52.198;5.004;2023-04-03T14:32:51;0.88;;;0.70;;
48667;SDS011;34453;52.198;5.004;2023-04-03T14:35:18;2.30;;;1.40;;
48667;SDS011;34453;52.198;5.004;2023-04-03T14:37:44;3.72;;;1.23;;
48667;SDS011;34453;52.198;5.004;2023-04-03T14:40:12;0.88;;;0.88;;
48667;SDS011;34453;52.198;5.004;2023-04-03T14:42:40;1.75;;;1.05;;
48667;SDS011;34453;52.198;5.004;2023-04-03T14:45:08;1.88;;;1.00;;
48667;SDS011;34453;52.198;5.004;2023-04-03T14:47:37;2.38;;;2.17;;
48667;SDS011;34453;52.198;5.004;2023-04-03T14:50:08;2.15;;;1.60;;
48667;SDS011;34453;52.198;5.004;2023-04-03T14:52:39;2.97;;;1.30;;
48667;SDS011;34453;52.198;5.004;2023-04-03T14:55:05;3.55;;;0.93;;
48667;SDS011;34453;52.198;5.004;2023-04-03T14:57:32;1.55;;;1.23;;
48667;SDS011;34453;52.198;5.004;2023-04-03T14:59:57;2.65;;;1.00;;
48667;SDS011;34453;52.198;5.004;2023-04-03T15:05:00;1.05;;;0.95;;
48667;SDS011;34453;52.198;5.004;2023-04-03T15:07:29;1.60;;;0.93;;
48667;SDS011;34453;52.198;5.004;2023-04-03T15:09:59;2.10;;;0.88;;
48667;SDS011;34453;52.198;5.004;2023-04-03T15:12:40;6.18;;;1.27;;
48667;SDS011;34453;52.198;5.004;2023-04-03T15:15:06;2.55;;;1.40;;
48667;SDS011;34453;52.198;5.004;2023-04-03T15:17:32;2.05;;;1.52;;
48667;SDS011;34453;52.198;5.004;2023-04-03T15:19:59;1.42;;;0.75;;
48667;SDS011;34453;52.198;5.004;2023-04-03T15:22:24;1.20;;;1.00;;
48667;SDS011;34453;52.198;5.004;2023-04-03T15:24:50;2.17;;;0.90;;
48667;SDS011;34453;52.198;5.004;2023-04-03T15:27:15;1.42;;;0.93;;
48667;SDS011;34453;52.198;5.004;2023-04-03T15:29:41;0.80;;;0.80;;
48667;SDS011;34453;52.198;5.004;2023-04-03T15:32:07;1.35;;;1.20;;
48667;SDS011;34453;52.198;5.004;2023-04-03T15:34:33;1.00;;;0.95;;
48667;SDS011;34453;52.198;5.004;2023-04-03T15:37:00;2.47;;;0.82;;
48667;SDS011;34453;52.198;5.004;2023-04-03T15:39:25;0.82;;;0.80;;
48667;SDS011;34453;52.198;5.004;2023-04-03T15:41:51;1.45;;;1.00;;
48667;SDS011;34453;52.198;5.004;2023-04-03T15:44:18;3.25;;;1.02;;
48667;SDS011;34453;52.198;5.004;2023-04-03T15:46:44;1.20;;;1.05;;
48667;SDS011;34453;52.198;5.004;2023-04-03T15:49:19;1.55;;;1.02;;
48667;SDS011;34453;52.198;5.004;2023-04-03T15:51:46;4.72;;;1.00;;
48667;SDS011;34453;52.198;5.004;2023-04-03T15:54:11;2.53;;;1.00;;
48667;SDS011;34453;52.198;5.004;2023-04-03T15:56:37;1.55;;;0.90;;
48667;SDS011;34453;52.198;5.004;2023-04-03T15:59:03;1.20;;;1.10;;
48667;SDS011;34453;52.198;5.004;2023-04-03T16:01:29;1.83;;;1.58;;
48667;SDS011;34453;52.198;5.004;2023-04-03T16:03:54;3.20;;;1.10;;
48667;SDS011;34453;52.198;5.004;2023-04-03T16:06:20;3.67;;;1.17;;
48667;SDS011;34453;52.198;5.004;2023-04-03T16:08:46;0.80;;;0.80;;
48667;SDS011;34453;52.198;5.004;2023-04-03T16:11:14;1.48;;;1.38;;
48667;SDS011;34453;52.198;5.004;2023-04-03T16:13:39;2.63;;;1.05;;
48667;SDS011;34453;52.198;5.004;2023-04-03T16:16:05;1.48;;;1.00;;
48667;SDS011;34453;52.198;5.004;2023-04-03T16:18:31;0.88;;;0.85;;
48667;SDS011;34453;52.198;5.004;2023-04-03T16:21:00;3.53;;;1.10;;
48667;SDS011;34453;52.198;5.004;2023-04-03T16:23:26;4.72;;;1.38;;
48667;SDS011;34453;52.198;5.004;2023-04-03T16:25:51;4.60;;;1.20;;
48667;SDS011;34453;52.198;5.004;2023-04-03T16:28:17;1.75;;;1.50;;
48667;SDS011;34453;52.198;5.004;2023-04-03T16:30:43;1.70;;;1.05;;
48667;SDS011;34453;52.198;5.004;2023-04-03T16:33:11;2.35;;;0.70;;
48667;SDS011;34453;52.198;5.004;2023-04-03T16:35:38;1.50;;;1.08;;
48667;SDS011;34453;52.198;5.004;2023-04-03T16:38:04;2.55;;;1.30;;
48667;SDS011;34453;52.198;5.004;2023-04-03T16:40:30;8.02;;;1.73;;
48667;SDS011;34453;52.198;5.004;2023-04-03T16:42:55;3.05;;;1.40;;
48667;SDS011;34453;52.198;5.004;2023-04-03T16:45:21;2.38;;;1.48;;
48667;SDS011;34453;52.198;5.004;2023-04-03T16:47:46;2.22;;;1.15;;
48667;SDS011;34453;52.198;5.004;2023-04-03T16:50:12;2.78;;;1.17;;
48667;SDS011;34453;52.198;5.004;2023-04-03T16:52:37;1.80;;;0.77;;
48667;SDS011;34453;52.198;5.004;2023-04-03T16:55:03;2.17;;;1.40;;
48667;SDS011;34453;52.198;5.004;2023-04-03T16:57:28;3.83;;;1.38;;
48667;SDS011;34453;52.198;5.004;2023-04-03T16:59:54;3.38;;;1.58;;
48667;SDS011;34453;52.198;5.004;2023-04-03T17:02:20;1.92;;;1.10;;
48667;SDS011;34453;52.198;5.004;2023-04-03T17:04:49;5.30;;;1.42;;
48667;SDS011;34453;52.198;5.004;2023-04-03T17:07:16;2.13;;;1.10;;
48667;SDS011;34453;52.198;5.004;2023-04-03T17:09:42;3.28;;;1.83;;
48667;SDS011;34453;52.198;5.004;2023-04-03T17:12:07;1.17;;;1.05;;
48667;SDS011;34453;52.198;5.004;2023-04-03T17:14:33;0.90;;;0.90;;
48667;SDS011;34453;52.198;5.004;2023-04-03T17:16:58;1.70;;;1.10;;